METAR UND TAF INFORMATION
CYYT 060841Z 06006KT 2SM BR OVC003 09/09 A3013 RMK SF8 VIS HIER SE SLP209

 FLUGHAFENKARTE

 RUNWAY INFORMATION
Runway 02 Runway length 5028 ft Runway width 100 ft
Runway elevation 445 ft Runway displaced threshold 0 ft Runway heading 356
Runway 20 Runway length 5028 ft Runway width 100 ft
Runway elevation 440 ft Runway displaced threshold 0 ft Runway heading 176
Runway 11 Runway length 8502 ft Runway width 200 ft
Runway elevation 458 ft Runway displaced threshold 0 ft Runway heading 86
Runway 29 Runway length 8502 ft Runway width 200 ft
Runway elevation 437 ft Runway displaced threshold 0 ft Runway heading 266
Runway 16 Runway length 7005 ft Runway width 200 ft
Runway elevation 444 ft Runway displaced threshold 0 ft Runway heading 142
Runway 34 Runway length 7005 ft Runway width 200 ft
Runway elevation 431 ft Runway displaced threshold 0 ft Runway heading 322

 AIRPORT FREQUENCIES
Type ATIS Name ATIS Frequency 128 MHZ
Type CNTR Name GANDER CNT Frequency 133.15 MHZ
Type FBO Name Shell Frequency 123 MHZ
Type GND Name GND Frequency 121.9 MHZ
Type RCO Name HALIFAX RD Frequency 123.275 MHZ
Type TWR Name TWR Frequency 120.6 MHZ

 AIRPORT NEAR NAVIGATION AIDS
Type NDB Name Signal Hill Frequency 358 KHZ
Type TACAN Name St.John's Frequency 108600 KHZ
Type NDB Name Torbay Frequency 260 KHZ
Type VOR-DME Name Torbay Frequency 113500 KHZ
Type NDB Name Wabana Frequency 270 KHZ
Type NDB Name Outer Cove Frequency 246 KHZ